createdAt,value
2023-04-23T00:01:19.418Z,71.65
2023-04-23T00:03:50.249Z,71.76
2023-04-23T00:06:17.983Z,72.04
2023-04-23T00:08:45.437Z,72.03
2023-04-23T00:11:12.806Z,72.16
2023-04-23T00:13:40.119Z,72.63
2023-04-23T00:16:07.791Z,72.56
2023-04-23T00:18:34.883Z,72.88
2023-04-23T00:21:01.827Z,72.70
2023-04-23T00:23:29.095Z,72.54
2023-04-23T00:25:56.148Z,72.83
2023-04-23T00:28:23.404Z,72.23
2023-04-23T00:30:51.185Z,71.88
2023-04-23T00:33:18.348Z,71.59
2023-04-23T00:35:45.706Z,72.16
2023-04-23T00:38:12.606Z,72.31
2023-04-23T00:40:40.369Z,72.11
2023-04-23T00:43:07.611Z,71.51
2023-04-23T00:45:34.953Z,72.36
2023-04-23T00:48:04.033Z,72.18
2023-04-23T00:50:31.127Z,72.35
2023-04-23T00:52:59.120Z,72.72
2023-04-23T00:55:26.824Z,72.99
2023-04-23T00:57:55.011Z,72.59
2023-04-23T01:00:22.186Z,72.80
2023-04-23T01:02:50.739Z,73.12
2023-04-23T01:05:18.367Z,73.31
2023-04-23T01:07:46.962Z,72.91
2023-04-23T01:10:14.094Z,72.98
2023-04-23T01:12:42.117Z,73.11
2023-04-23T01:15:09.878Z,73.25
2023-04-23T01:17:37.286Z,73.18
2023-04-23T01:20:06.781Z,72.83
2023-04-23T01:22:38.576Z,72.44
2023-04-23T01:25:06.201Z,72.65
2023-04-23T01:27:36.101Z,72.67
2023-04-23T01:30:05.751Z,72.81
2023-04-23T01:32:34.234Z,72.78
2023-04-23T01:35:03.336Z,72.70
2023-04-23T01:37:30.752Z,73.34
2023-04-23T01:39:57.722Z,72.99
2023-04-23T01:42:24.744Z,73.16
2023-04-23T01:44:53.809Z,72.62
2023-04-23T01:47:21.741Z,72.28
2023-04-23T01:49:48.845Z,71.99
2023-04-23T01:52:15.950Z,71.42
2023-04-23T01:54:43.277Z,70.83
2023-04-23T01:57:11.036Z,70.41
2023-04-23T01:59:38.826Z,70.70
2023-04-23T02:02:06.049Z,69.88
2023-04-23T02:04:34.443Z,70.08
2023-04-23T02:07:01.529Z,70.32
2023-04-23T02:09:28.497Z,69.67
2023-04-23T02:11:57.861Z,69.60
2023-04-23T02:14:24.959Z,69.29
2023-04-23T02:16:52.826Z,69.10
2023-04-23T02:19:19.799Z,69.01
2023-04-23T02:21:46.917Z,69.02
2023-04-23T02:24:13.937Z,68.57
2023-04-23T02:26:41.109Z,68.26
2023-04-23T02:29:08.108Z,67.81
2023-04-23T02:31:35.200Z,67.38
2023-04-23T02:34:02.365Z,67.36
2023-04-23T02:36:31.301Z,66.60
2023-04-23T02:38:58.466Z,67.01
2023-04-23T02:41:25.493Z,66.43
2023-04-23T02:43:52.471Z,66.36
2023-04-23T02:46:19.481Z,65.97
2023-04-23T02:48:46.829Z,65.63
2023-04-23T02:51:14.464Z,65.55
2023-04-23T02:53:41.654Z,65.59
2023-04-23T02:56:08.770Z,65.44
2023-04-23T02:58:36.294Z,65.09
2023-04-23T03:01:03.939Z,65.17
2023-04-23T03:03:34.659Z,64.82
2023-04-23T03:06:05.149Z,65.06
2023-04-23T03:08:32.433Z,64.78
2023-04-23T03:11:00.402Z,64.85
2023-04-23T03:13:27.560Z,64.80
2023-04-23T03:15:55.560Z,64.96
2023-04-23T03:18:22.619Z,64.91
2023-04-23T03:20:52.872Z,65.00
2023-04-23T03:23:19.908Z,65.45
2023-04-23T03:25:47.845Z,64.94
2023-04-23T03:28:15.076Z,64.61
2023-04-23T03:30:42.792Z,64.68
2023-04-23T03:33:10.006Z,64.70
2023-04-23T03:35:37.650Z,64.89
2023-04-23T03:38:09.378Z,64.49
2023-04-23T03:40:36.892Z,64.46
2023-04-23T03:43:06.561Z,64.12
2023-04-23T03:45:53.813Z,63.90
2023-04-23T03:48:21.771Z,63.90
2023-04-23T03:50:49.401Z,64.02
2023-04-23T03:53:38.862Z,64.49
2023-04-23T03:56:26.964Z,64.46
2023-04-23T03:59:11.222Z,64.44
2023-04-23T04:01:38.244Z,64.07
2023-04-23T04:04:05.785Z,63.72
2023-04-23T04:06:34.005Z,63.89
2023-04-23T04:09:00.981Z,63.49
2023-04-23T04:11:29.526Z,63.41
2023-04-23T04:13:56.664Z,62.72
2023-04-23T04:16:23.679Z,62.42
2023-04-23T04:18:50.652Z,62.17
2023-04-23T04:21:19.038Z,62.09
2023-04-23T04:23:46.082Z,61.80
2023-04-23T04:26:13.705Z,61.74
2023-04-23T04:28:40.704Z,61.44
2023-04-23T04:31:08.707Z,61.72
2023-04-23T04:33:36.177Z,61.73
2023-04-23T04:36:03.752Z,61.43
2023-04-23T04:38:31.081Z,61.49
2023-04-23T04:41:02.112Z,61.30
2023-04-23T04:43:29.342Z,61.22
2023-04-23T04:45:56.228Z,61.41
2023-04-23T04:48:23.277Z,60.78
2023-04-23T04:50:50.511Z,61.21
2023-04-23T04:53:17.476Z,61.22
2023-04-23T04:55:44.492Z,61.07
2023-04-23T04:58:11.608Z,61.27
2023-04-23T05:00:38.679Z,61.36
2023-04-23T05:03:06.341Z,61.18
2023-04-23T05:05:33.862Z,61.40
2023-04-23T05:08:02.445Z,60.88
2023-04-23T05:10:30.120Z,61.03
2023-04-23T05:12:58.480Z,61.10
2023-04-23T05:15:25.389Z,60.77
2023-04-23T05:17:53.759Z,60.96
2023-04-23T05:20:21.760Z,60.74
2023-04-23T05:22:48.704Z,60.70
2023-04-23T05:25:15.786Z,60.64
2023-04-23T05:27:42.855Z,60.52
2023-04-23T05:30:11.042Z,60.96
2023-04-23T05:32:38.875Z,60.52
2023-04-23T05:35:07.214Z,60.85
2023-04-23T05:37:34.421Z,60.76
2023-04-23T05:40:02.769Z,60.74
2023-04-23T05:42:29.765Z,60.96
2023-04-23T05:44:56.641Z,60.72
2023-04-23T05:47:23.666Z,60.72
2023-04-23T05:49:50.809Z,60.48
2023-04-23T05:52:18.959Z,60.56
2023-04-23T05:54:45.907Z,60.38
2023-04-23T05:57:13.116Z,60.74
2023-04-23T05:59:40.005Z,60.60
2023-04-23T06:02:08.645Z,60.28
2023-04-23T06:04:36.441Z,60.15
2023-04-23T06:07:04.478Z,60.52
2023-04-23T06:09:31.443Z,60.00
2023-04-23T06:11:59.369Z,60.01
2023-04-23T06:14:26.245Z,59.83
2023-04-23T06:16:53.228Z,59.77
2023-04-23T06:19:20.637Z,59.70
2023-04-23T06:21:47.618Z,59.60
2023-04-23T06:24:14.540Z,59.61
2023-04-23T06:26:41.537Z,59.30
2023-04-23T06:29:14.504Z,59.04
2023-04-23T06:31:55.123Z,58.96
2023-04-23T06:34:22.065Z,58.57
2023-04-23T06:36:49.079Z,58.10
2023-04-23T06:39:16.218Z,57.40
2023-04-23T06:41:43.600Z,56.99
2023-04-23T06:44:22.541Z,56.73
2023-04-23T06:46:52.176Z,55.78
2023-04-23T06:49:19.277Z,56.11
2023-04-23T06:51:46.322Z,56.17
2023-04-23T06:54:13.218Z,55.77
2023-04-23T06:56:40.259Z,55.33
2023-04-23T06:59:07.886Z,53.42
2023-04-23T07:01:41.081Z,51.22
2023-04-23T07:04:08.385Z,48.86
2023-04-23T07:06:35.750Z,49.24
2023-04-23T07:09:02.932Z,48.16
2023-04-23T07:11:31.889Z,48.32
2023-04-23T07:13:58.920Z,47.30
2023-04-23T07:16:26.069Z,46.80
2023-04-23T07:18:53.536Z,46.99
2023-04-23T07:21:21.057Z,46.73
2023-04-23T07:23:47.985Z,45.36
2023-04-23T07:26:15.065Z,43.40
2023-04-23T07:28:42.147Z,43.74
2023-04-23T07:31:09.432Z,43.98
2023-04-23T07:33:36.591Z,43.55
2023-04-23T07:36:03.556Z,44.01
2023-04-23T07:39:02.212Z,44.22
2023-04-23T07:41:29.260Z,45.14
2023-04-23T07:43:56.702Z,45.02
2023-04-23T07:46:23.790Z,44.93
2023-04-23T07:48:51.633Z,44.85
2023-04-23T07:51:18.918Z,42.43
2023-04-23T07:53:47.138Z,40.83
2023-04-23T07:56:14.605Z,39.37
2023-04-23T07:58:41.552Z,37.83
2023-04-23T08:01:08.664Z,37.94
2023-04-23T08:03:35.797Z,35.94
2023-04-23T08:06:04.778Z,34.86
2023-04-23T08:08:31.733Z,33.92
2023-04-23T08:10:58.945Z,33.59
2023-04-23T08:13:25.924Z,33.38
2023-04-23T08:15:52.942Z,33.93
2023-04-23T08:18:19.873Z,34.21
2023-04-23T08:20:46.900Z,35.27
2023-04-23T08:23:20.752Z,35.19
2023-04-23T08:25:47.688Z,35.64
2023-04-23T08:28:14.610Z,35.98
2023-04-23T08:30:41.788Z,33.60
2023-04-23T08:33:08.820Z,32.68
2023-04-23T08:35:35.899Z,32.86
2023-04-23T08:38:02.929Z,32.14
2023-04-23T08:40:31.894Z,32.23
2023-04-23T08:43:02.994Z,29.94
2023-04-23T08:45:31.058Z,30.46
2023-04-23T08:48:02.678Z,28.11
2023-04-23T08:50:34.186Z,28.65
2023-04-23T08:53:04.617Z,29.49
2023-04-23T08:55:34.081Z,31.58
2023-04-23T08:58:02.655Z,31.86
2023-04-23T09:00:30.171Z,32.84
2023-04-23T09:02:57.900Z,33.55
2023-04-23T09:05:26.529Z,34.06
2023-04-23T09:07:54.616Z,35.31
2023-04-23T09:10:21.672Z,35.73
2023-04-23T09:12:48.810Z,36.15
2023-04-23T09:15:17.075Z,37.64
2023-04-23T09:17:46.842Z,38.39
2023-04-23T09:20:14.871Z,39.18
2023-04-23T09:22:48.884Z,39.57
2023-04-23T09:25:19.099Z,39.51
2023-04-23T09:27:47.465Z,40.03
2023-04-23T09:30:15.544Z,40.36
2023-04-23T09:32:43.983Z,40.00
2023-04-23T09:35:14.135Z,40.55
2023-04-23T09:37:43.360Z,40.67
2023-04-23T09:40:14.458Z,41.58
2023-04-23T09:42:41.530Z,41.98
2023-04-23T09:45:11.991Z,42.19
2023-04-23T09:47:40.301Z,42.04
2023-04-23T09:50:10.556Z,42.98
2023-04-23T09:52:41.214Z,42.53
2023-04-23T09:55:08.789Z,42.82
2023-04-23T09:57:41.539Z,43.23
2023-04-23T10:00:21.334Z,43.51
2023-04-23T10:02:50.334Z,43.75
2023-04-23T10:05:24.803Z,43.76
2023-04-23T10:07:56.607Z,44.05
2023-04-23T10:10:24.727Z,44.12
2023-04-23T10:12:55.582Z,44.74
2023-04-23T10:15:27.468Z,45.42
2023-04-23T10:17:56.021Z,45.25
2023-04-23T10:20:23.985Z,45.44
2023-04-23T10:22:53.932Z,45.43
2023-04-23T10:25:23.066Z,45.66
2023-04-23T10:27:54.237Z,45.92
2023-04-23T10:30:23.217Z,45.99
2023-04-23T10:32:51.099Z,46.29
2023-04-23T10:35:18.489Z,46.96
2023-04-23T10:37:48.358Z,47.08
2023-04-23T10:40:22.141Z,47.69
2023-04-23T10:42:50.237Z,47.09
2023-04-23T10:47:55.490Z,46.09
2023-04-23T10:50:23.100Z,45.42
2023-04-23T10:52:54.453Z,44.92
2023-04-23T10:55:26.692Z,44.31
2023-04-23T10:58:07.899Z,43.84
2023-04-23T11:00:47.803Z,43.68
2023-04-23T11:03:43.414Z,43.52
2023-04-23T11:06:20.821Z,43.38
2023-04-23T11:08:55.280Z,43.37
2023-04-23T11:11:41.731Z,43.10
2023-04-23T11:14:15.763Z,44.85
2023-04-23T11:16:43.574Z,45.54
2023-04-23T11:19:12.905Z,45.83
2023-04-23T11:21:58.914Z,46.66
2023-04-23T11:24:30.253Z,47.11
2023-04-23T11:26:58.116Z,47.04
2023-04-23T11:29:27.101Z,47.35
2023-04-23T11:32:02.723Z,47.84
2023-04-23T11:34:32.657Z,47.95
2023-04-23T11:37:00.767Z,48.65
2023-04-23T11:39:28.505Z,48.78
2023-04-23T11:41:55.719Z,47.99
2023-04-23T11:44:22.868Z,47.64
2023-04-23T11:46:50.611Z,47.68
2023-04-23T11:49:18.976Z,47.79
2023-04-23T11:51:47.132Z,47.93
2023-04-23T11:54:15.035Z,47.89
2023-04-23T11:56:42.427Z,47.35
2023-04-23T11:59:09.741Z,47.57
2023-04-23T12:01:49.435Z,47.26
2023-04-23T12:04:19.833Z,48.08
2023-04-23T12:06:48.894Z,48.06
2023-04-23T12:09:17.566Z,48.06
2023-04-23T12:11:46.029Z,47.94
2023-04-23T12:14:15.307Z,47.55
2023-04-23T12:16:43.800Z,47.36
2023-04-23T12:19:14.875Z,46.88
2023-04-23T12:21:55.785Z,46.63
2023-04-23T12:24:30.936Z,46.50
2023-04-23T12:27:02.693Z,46.60
2023-04-23T12:29:31.179Z,46.88
2023-04-23T12:31:59.857Z,46.95
2023-04-23T12:34:26.955Z,46.96
2023-04-23T12:37:07.584Z,46.99
2023-04-23T12:39:36.051Z,47.01
2023-04-23T12:42:09.810Z,47.03
2023-04-23T12:44:38.757Z,47.20
2023-04-23T12:47:11.586Z,47.35
2023-04-23T12:49:40.308Z,47.33
2023-04-23T12:52:08.124Z,47.35
2023-04-23T12:54:38.026Z,47.53
2023-04-23T12:57:07.733Z,47.59
2023-04-23T12:59:34.751Z,47.61
2023-04-23T13:02:03.091Z,47.62
2023-04-23T13:04:32.358Z,47.50
2023-04-23T13:06:59.489Z,47.43
2023-04-23T13:09:40.274Z,47.06
2023-04-23T13:12:07.353Z,46.94
2023-04-23T13:14:34.353Z,46.64
2023-04-23T13:17:01.391Z,46.55
2023-04-23T13:19:28.390Z,46.68
2023-04-23T13:21:55.520Z,46.76
2023-04-23T13:24:22.465Z,46.84
2023-04-23T13:26:49.452Z,46.89
2023-04-23T13:29:16.462Z,46.80
2023-04-23T13:31:43.531Z,46.72
2023-04-23T13:34:10.618Z,46.65
2023-04-23T13:36:37.896Z,46.94
2023-04-23T13:39:04.910Z,46.86
2023-04-23T13:41:32.021Z,46.92
2023-04-23T13:43:59.852Z,47.04
2023-04-23T13:46:26.965Z,46.85
2023-04-23T13:48:54.348Z,46.45
2023-04-23T13:51:33.894Z,46.52
2023-04-23T13:54:01.836Z,46.54
2023-04-23T13:56:30.290Z,46.34
2023-04-23T14:01:32.262Z,46.54
2023-04-23T14:03:59.229Z,46.52
2023-04-23T14:06:26.981Z,46.84
2023-04-23T14:08:53.916Z,47.05
2023-04-23T14:11:22.753Z,46.95
2023-04-23T14:13:49.928Z,47.25
2023-04-23T14:16:17.642Z,47.56
2023-04-23T14:18:44.652Z,47.87
2023-04-23T14:21:13.278Z,47.55
2023-04-23T14:23:49.140Z,48.53
2023-04-23T14:26:50.142Z,48.83
2023-04-23T14:29:23.240Z,47.64
2023-04-23T14:31:50.731Z,48.11
2023-04-23T14:34:17.721Z,48.52
2023-04-23T14:36:46.685Z,48.67
2023-04-23T14:39:13.654Z,49.04
2023-04-23T14:41:41.143Z,48.61
2023-04-23T14:44:09.058Z,48.61
2023-04-23T14:46:36.241Z,48.90
2023-04-23T14:49:04.055Z,48.79
2023-04-23T14:51:31.463Z,48.90
2023-04-23T14:53:58.442Z,48.74
2023-04-23T14:56:25.724Z,48.47
2023-04-23T14:58:52.624Z,48.36
2023-04-23T15:01:19.670Z,48.48
2023-04-23T15:03:47.049Z,48.22
2023-04-23T15:06:14.326Z,48.09
2023-04-23T15:08:41.222Z,47.77
2023-04-23T15:11:13.484Z,47.06
2023-04-23T15:13:50.885Z,46.33
2023-04-23T15:19:15.039Z,46.28
2023-04-23T15:21:43.230Z,46.40
2023-04-23T15:24:10.768Z,46.65
2023-04-23T15:29:09.052Z,47.32
2023-04-23T15:31:39.110Z,47.73
2023-04-23T15:34:09.242Z,47.73
2023-04-23T15:36:37.707Z,48.11
2023-04-23T15:39:06.538Z,48.30
2023-04-23T15:41:39.562Z,48.71
2023-04-23T15:44:11.943Z,48.82
2023-04-23T15:46:39.945Z,48.87
2023-04-23T15:49:06.920Z,48.67
2023-04-23T15:51:33.868Z,48.75
2023-04-23T15:54:02.291Z,47.51
2023-04-23T15:56:29.292Z,47.07
2023-04-23T15:59:03.418Z,46.86
2023-04-23T16:01:33.746Z,46.52
2023-04-23T16:04:10.463Z,46.38
2023-04-23T16:06:39.515Z,46.05
2023-04-23T16:09:12.791Z,45.88
2023-04-23T16:11:40.065Z,45.08
2023-04-23T16:14:09.490Z,44.89
2023-04-23T16:16:38.318Z,44.89
2023-04-23T16:19:05.451Z,44.64
2023-04-23T16:21:32.846Z,44.65
2023-04-23T16:23:59.866Z,44.62
2023-04-23T16:26:28.242Z,44.38
2023-04-23T16:29:05.749Z,44.03
2023-04-23T16:31:39.101Z,43.48
2023-04-23T16:34:06.163Z,42.60
2023-04-23T16:36:33.224Z,42.79
2023-04-23T16:39:00.223Z,42.35
2023-04-23T16:41:27.486Z,42.34
2023-04-23T16:43:54.339Z,42.21
2023-04-23T16:46:21.449Z,42.12
2023-04-23T16:48:48.600Z,41.98
2023-04-23T16:51:15.658Z,41.76
2023-04-23T16:53:42.765Z,41.87
2023-04-23T16:56:09.853Z,41.49
2023-04-23T16:58:36.896Z,41.89
2023-04-23T17:01:04.141Z,41.87
2023-04-23T17:03:31.390Z,41.92
2023-04-23T17:06:29.914Z,41.92
2023-04-23T17:08:59.141Z,42.20
2023-04-23T17:11:28.304Z,41.92
2023-04-23T17:13:56.101Z,41.94
2023-04-23T17:16:25.293Z,42.11
2023-04-23T17:18:53.030Z,42.02
2023-04-23T17:21:20.346Z,42.27
2023-04-23T17:23:47.740Z,41.97
2023-04-23T17:29:18.956Z,41.69
2023-04-23T17:31:45.968Z,41.39
2023-04-23T17:34:13.175Z,40.74
2023-04-23T17:36:40.194Z,40.36
2023-04-23T17:39:07.823Z,39.65
2023-04-23T17:41:34.869Z,39.11
2023-04-23T17:44:01.888Z,38.93
2023-04-23T17:46:28.955Z,38.67
2023-04-23T17:48:56.769Z,38.78
2023-04-23T17:51:23.685Z,38.02
2023-04-23T17:53:51.107Z,38.16
2023-04-23T17:56:18.242Z,38.06
2023-04-23T17:58:45.325Z,38.12
2023-04-23T18:01:12.666Z,38.09
2023-04-23T18:03:40.691Z,38.00
2023-04-23T18:06:09.351Z,37.78
2023-04-23T18:08:37.585Z,37.50
2023-04-23T18:11:06.888Z,37.50
2023-04-23T18:13:34.084Z,37.18
2023-04-23T18:16:01.017Z,37.19
2023-04-23T18:18:28.152Z,40.96
2023-04-23T18:20:55.112Z,43.13
2023-04-23T18:23:22.403Z,43.20
2023-04-23T18:25:49.622Z,43.77
2023-04-23T18:28:16.713Z,43.94
2023-04-23T18:30:43.848Z,44.71
2023-04-23T18:33:36.826Z,44.64
2023-04-23T18:36:36.587Z,44.75
2023-04-23T18:39:04.207Z,44.32
2023-04-23T18:41:31.217Z,45.30
2023-04-23T18:44:00.404Z,44.83
2023-04-23T18:46:29.008Z,46.17
2023-04-23T18:49:01.746Z,47.66
2023-04-23T18:51:38.613Z,48.79
2023-04-23T18:54:06.054Z,49.11
2023-04-23T18:56:33.859Z,48.74
2023-04-23T18:59:00.885Z,48.02
2023-04-23T19:01:28.520Z,47.92
2023-04-23T19:03:56.629Z,47.22
2023-04-23T19:06:23.667Z,47.36
2023-04-23T19:08:50.952Z,47.89
2023-04-23T19:11:17.955Z,49.29
2023-04-23T19:13:45.073Z,51.56
2023-04-23T19:16:12.097Z,52.49
2023-04-23T19:18:39.155Z,53.87
2023-04-23T19:21:06.130Z,55.41
2023-04-23T19:23:33.962Z,56.49
2023-04-23T19:26:01.839Z,58.45
2023-04-23T19:28:29.022Z,59.79
2023-04-23T19:30:57.031Z,61.74
2023-04-23T19:33:24.446Z,62.77
2023-04-23T19:35:51.329Z,63.63
2023-04-23T19:38:18.690Z,65.45
2023-04-23T19:40:45.758Z,66.27
2023-04-23T19:43:13.000Z,67.01
2023-04-23T19:45:39.919Z,68.09
2023-04-23T19:48:08.338Z,68.85
2023-04-23T19:50:35.672Z,69.20
2023-04-23T19:53:05.109Z,68.92
2023-04-23T19:55:32.104Z,69.91
2023-04-23T19:57:59.084Z,70.11
2023-04-23T20:00:30.043Z,69.49
2023-04-23T20:02:58.250Z,69.57
2023-04-23T20:05:25.768Z,69.06
2023-04-23T20:07:52.713Z,68.38
2023-04-23T20:10:19.769Z,68.67
2023-04-23T20:12:46.830Z,68.28
2023-04-23T20:15:14.288Z,67.77
2023-04-23T20:17:41.699Z,67.79
2023-04-23T20:20:10.785Z,68.35
2023-04-23T20:22:37.822Z,68.26
2023-04-23T20:25:05.379Z,69.26
2023-04-23T20:27:32.784Z,69.04
2023-04-23T20:29:59.945Z,68.89
2023-04-23T20:32:26.910Z,68.87
2023-04-23T20:34:53.926Z,68.42
2023-04-23T20:37:21.870Z,68.36
2023-04-23T20:39:49.944Z,68.05
2023-04-23T20:42:17.274Z,68.77
2023-04-23T20:44:47.009Z,68.61
2023-04-23T20:47:16.451Z,68.19
2023-04-23T20:49:43.777Z,68.41
2023-04-23T20:52:12.458Z,68.43
2023-04-23T20:54:39.457Z,68.21
2023-04-23T20:57:07.118Z,68.37
2023-04-23T20:59:34.238Z,69.39
2023-04-23T21:02:01.313Z,69.25
2023-04-23T21:04:28.508Z,69.40
2023-04-23T21:06:56.017Z,69.63
2023-04-23T21:09:22.913Z,69.10
2023-04-23T21:11:51.091Z,69.35
2023-04-23T21:14:18.021Z,69.20
2023-04-23T21:16:44.953Z,69.20
2023-04-23T21:19:11.866Z,69.19
2023-04-23T21:21:38.865Z,70.09
2023-04-23T21:24:06.478Z,69.82
2023-04-23T21:26:33.493Z,69.71
2023-04-23T21:29:00.584Z,69.62
2023-04-23T21:31:43.295Z,69.46
2023-04-23T21:34:10.245Z,68.61
2023-04-23T21:36:37.248Z,68.72
2023-04-23T21:39:04.774Z,68.33
2023-04-23T21:41:31.818Z,67.94
2023-04-23T21:43:58.901Z,68.28
2023-04-23T21:46:26.393Z,67.60
2023-04-23T21:48:54.044Z,67.24
2023-04-23T21:51:22.881Z,66.80
2023-04-23T21:53:49.852Z,66.52
2023-04-23T21:56:17.850Z,67.66
2023-04-23T21:58:45.156Z,67.20
2023-04-23T22:01:12.136Z,67.25
2023-04-23T22:03:42.795Z,68.21
2023-04-23T22:06:09.954Z,68.70
2023-04-23T22:08:40.524Z,68.29
2023-04-23T22:11:08.842Z,68.96
2023-04-23T22:13:36.422Z,67.98
2023-04-23T22:16:10.734Z,68.44
2023-04-23T22:18:44.794Z,68.07
2023-04-23T22:21:11.768Z,68.49
2023-04-23T22:23:38.953Z,68.25
2023-04-23T22:26:06.032Z,68.78
2023-04-23T22:28:33.056Z,68.38
2023-04-23T22:31:00.040Z,68.62
2023-04-23T22:33:28.462Z,68.79
2023-04-23T22:35:55.374Z,68.87
2023-04-23T22:38:22.427Z,69.17
2023-04-23T22:40:49.373Z,69.10
2023-04-23T22:43:16.455Z,68.55
2023-04-23T22:45:43.607Z,68.18
2023-04-23T22:48:10.620Z,68.63
2023-04-23T22:50:40.159Z,68.36
2023-04-23T22:53:07.184Z,68.30
2023-04-23T22:55:34.420Z,68.48
2023-04-23T22:58:01.384Z,67.90
2023-04-23T23:00:28.301Z,68.00
2023-04-23T23:02:56.036Z,68.57
2023-04-23T23:05:23.037Z,68.45
2023-04-23T23:07:50.312Z,67.89
2023-04-23T23:10:17.259Z,67.87
2023-04-23T23:12:44.731Z,68.59
2023-04-23T23:15:12.034Z,68.60
2023-04-23T23:17:39.223Z,68.46
2023-04-23T23:20:09.326Z,68.61
2023-04-23T23:22:36.605Z,69.12
2023-04-23T23:25:04.327Z,68.63
2023-04-23T23:27:31.175Z,68.29
2023-04-23T23:29:58.165Z,68.21
2023-04-23T23:32:25.158Z,68.61
2023-04-23T23:34:52.073Z,69.10
2023-04-23T23:37:19.490Z,69.21
2023-04-23T23:39:46.448Z,69.61
2023-04-23T23:42:13.339Z,68.97
2023-04-23T23:44:40.454Z,69.06
2023-04-23T23:47:07.450Z,69.06
2023-04-23T23:49:34.596Z,69.29
2023-04-23T23:52:02.217Z,69.49
2023-04-23T23:54:29.064Z,69.17
2023-04-23T23:56:57.335Z,69.66
2023-04-23T23:59:24.302Z,69.69
